Updated27/09/2021 7:16pm 
 

Nearby Airport METAR Reports

 

KVSF - Springfield, Vermont, USA
Distance from station: WSW 8mi, 12km
Updated: 09/27/2021 6:54pm
Overcast
Overcast
 Wind from calm
Wind: Calm
Temperature: 61°F , 16°C
Dew Point: 61°F , 16°C
Humidity: 100%
Barometer: 29.79 inHg , 1008.8 hPa
Clouds: Overcast
Visibility: 10 miles , 16 km
Cloud details: Overcast 6000 ft
2021/09/27 22:54 KVSF 272254Z AUTO 00000KT 10SM OVC060 16/16 A2979 RMK AO2 RAE01 SLP091 P0000 T01610156
KLEB - Lebanon, New Hampshire, USA
Distance from station: N 18mi, 29km
Updated: 09/27/2021 6:53pm
Overcast
Overcast
 Wind from calm
Wind: Calm
Temperature: 61°F , 16°C
Dew Point: 57°F , 14°C
Humidity: 88%
Barometer: 29.79 inHg , 1008.8 hPa
Clouds: Overcast
Visibility: 10 miles , 16 km
Cloud details: Overcast 5500 ft
2021/09/27 22:53 KLEB 272253Z 00000KT 10SM OVC055 16/14 A2979 RMK AO2 SLP084 T01610144
KRUT - Rutland State, Vermont, USA
Distance from station: WNW 31mi, 50km
Updated: 09/27/2021 6:56pm
Overcast
Overcast
 Wind from calm
Wind: Calm
Temperature: 61°F , 16°C
Dew Point: 61°F , 16°C
Humidity: 100%
Barometer: 29.80 inHg , 1009.1 hPa
Clouds: Overcast
Visibility: 9 miles , 14 km
Cloud details: Overcast 5500 ft
2021/09/27 22:56 KRUT 272256Z AUTO 00000KT 9SM OVC055 16/16 A2980 RMK AO2 SLP085 T01560156 PNO $
 
KEEN - Keene/Dillant, New Hampshire, USA
Distance from station: S 34mi, 55km
Updated: 09/27/2021 6:56pm
Overcast
Overcast
 Wind from calm
Wind: Calm
Temperature: 63°F , 17°C
Dew Point: 61°F , 16°C
Humidity: 94%
Barometer: 29.79 inHg , 1008.8 hPa
Clouds: Overcast
Visibility: 9 miles , 14 km
Cloud details: Overcast 7500 ft
2021/09/27 22:56 KEEN 272256Z AUTO 00000KT 9SM OVC075 17/16 A2979 RMK AO2 SLP092 T01720161 $
K1P1 - Plymouth, New Hampshire, USA
Distance from station: NE 42mi, 67km
Updated: 09/27/2021 7:15pm
Overcast
Overcast
 Wind from calm
Wind: Calm
Temperature: 61°F , 16°C
Dew Point: 57°F , 14°C
Humidity: 88%
Barometer: 29.79 inHg , 1008.8 hPa
Clouds: Overcast
Visibility: 10 miles , 16 km
Cloud details: Overcast 5000 ft
2021/09/27 23:15 K1P1 272315Z AUTO 00000KT 10SM OVC050 16/14 A2979 RMK AO2 T01610137
KAFN - Jaffrey, New Hampshire, USA
Distance from station: SSE 44mi, 70km
Updated: 09/27/2021 6:52pm
Few Clouds
Few Clouds
 Wind from S
Wind: S 5 mph , 7 km/h
Temperature: 64°F , 18°C
Dew Point: 61°F , 16°C
Humidity: 88%
Barometer: 29.81 inHg , 1009.5 hPa
Clouds: Few Clouds
Visibility: 10 miles , 16 km
Cloud details: Few Clouds 7000 ft
2021/09/27 22:52 KAFN 272252Z AUTO 18004KT 10SM FEW070 18/16 A2981 RMK AO2 SLP099 T01830156
 
KCON - Concord, New Hampshire, USA
Distance from station: ESE 45mi, 73km
Updated: 09/27/2021 6:51pm
Overcast
Overcast
 Wind from calm
Wind: Calm
Temperature: 64°F , 18°C
Dew Point: 59°F , 15°C
Humidity: 83%
Barometer: 29.79 inHg , 1008.8 hPa
Clouds: Overcast
Visibility: 10 miles , 16 km
Cloud details: Overcast 7000 ft
2021/09/27 22:51 KCON 272251Z AUTO 00000KT 10SM OVC070 18/15 A2979 RMK AO2 SLP087 T01780150
KLCI - Laconia Muni, New Hampshire, USA
Distance from station: ENE 49mi, 80km
Updated: 09/27/2021 6:56pm
Overcast
Overcast
 Wind from calm
Wind: Calm
Temperature: 63°F , 17°C
Dew Point: 59°F , 15°C
Humidity: 88%
Barometer: 29.79 inHg , 1008.8 hPa
Clouds: Overcast
Visibility: 10 miles , 16 km
Cloud details: Mostly cloudy 3800 ft
Overcast 5500 ft
2021/09/27 22:56 KLCI 272256Z AUTO 00000KT 10SM BKN038 OVC055 17/15 A2979 RMK AO2 SLP089 T01670150
KDDH - Bennington, Vermont, USA
Distance from station: SW 55mi, 89km
Updated: 09/27/2021 6:54pm
Overcast
Overcast
 Wind from SW
Wind: SW 5 mph , 7 km/h
Temperature: 70°F , 21°C
Dew Point: 55°F , 13°C
Humidity: 60%
Barometer: 29.79 inHg , 1008.8 hPa
Clouds: Overcast
Visibility: 10 miles , 16 km
Cloud details: Overcast 6500 ft
2021/09/27 22:54 KDDH 272254Z AUTO 22004KT 10SM OVC065 21/13 A2979 RMK AO2 SLP085 T02060133 $
 
K6B0 - Middlebury, Vermont, USA
Distance from station: NW 56mi, 90km
Updated: 09/27/2021 6:55pm
Overcast
Overcast
 Wind from calm
Wind: Calm
Temperature: 61°F , 16°C
Dew Point: 57°F , 14°C
Humidity: 88%
Barometer: 29.78 inHg , 1008.5 hPa
Clouds: Overcast
Visibility: 10 miles , 16 km
Cloud details: Overcast 5500 ft
2021/09/27 22:55 K6B0 272255Z AUTO 00000KT 10SM OVC055 16/14 A2978 RMK AO2 T01560140
KMHT - Manchester, New Hampshire, USA
Distance from station: ESE 56mi, 90km
Updated: 09/27/2021 6:53pm
Mostly cloudy
Mostly cloudy
 Wind from SE
Wind: SE 3 mph , 6 km/h
Temperature: 68°F , 20°C
Dew Point: 59°F , 15°C
Humidity: 73%
Barometer: 29.76 inHg , 1007.8 hPa
Clouds: Mostly cloudy
Visibility: 10 miles , 16 km
Cloud details: Mostly cloudy 7500 ft
Mostly cloudy 25000 ft
2021/09/27 22:53 KMHT 272253Z 14003KT 10SM BKN075 BKN250 20/15 A2976 RMK AO2 SLP090 T02000150
KORE - Orange, Massachusetts, USA
Distance from station: S 56mi, 90km
Updated: 09/27/2021 6:52pm
Partly cloudy
Partly cloudy
 Wind from S
Wind: S 6 mph , 9 km/h
Temperature: 66°F , 19°C
Dew Point: 57°F , 14°C
Humidity: 73%
Barometer: 29.81 inHg , 1009.5 hPa
Clouds: Partly cloudy
Visibility: 10 miles , 16 km
Cloud details: Partly cloudy 7000 ft
2021/09/27 22:52 KORE 272252Z AUTO 19005KT 10SM SCT070 19/14 A2981 RMK AO2 SLP095 T01890144
 
KMPV - Montpelier/Barre, Vermont, USA
Distance from station: N 58mi, 93km
Updated: 09/27/2021 6:51pm
Overcast
Overcast
 Wind from calm
Wind: Calm
Temperature: 61°F , 16°C
Dew Point: 55°F , 13°C
Humidity: 83%
Barometer: 29.82 inHg , 1009.8 hPa
Clouds: Overcast
Visibility: 10 miles , 16 km
Cloud details: Overcast 3300 ft
2021/09/27 22:51 KMPV 272251Z AUTO 00000KT 10SM OVC033 16/13 A2982 RMK AO2 SLP098 T01610133
KASH - Nashua/Boire Fld, New Hampshire, USA
Distance from station: SE 59mi, 95km
Updated: 09/27/2021 6:56pm
Partly cloudy
Partly cloudy
 Wind from calm
Wind: Calm
Temperature: 64°F , 18°C
Dew Point: 64°F , 18°C
Humidity: 100%
Barometer: 29.79 inHg , 1008.8 hPa
Clouds: Partly cloudy
Visibility: 10 miles , 16 km
Cloud details: Partly cloudy 8500 ft
2021/09/27 22:56 KASH 272256Z 00000KT 10SM SCT085 18/18 A2979 RMK AO2 SLP092 T01780178
KAQW - North Adams, Massachusetts, USA
Distance from station: SW 62mi, 99km
Updated: 09/24/2021 10:52pm
NOT Current
Clear
Clear
 Wind from calm
Wind: Calm
Temperature: 54°F , 12°C
Dew Point: 50°F , 10°C
Humidity: 88%
Barometer: 30.08 inHg , 1018.6 hPa
Clouds: Clear
Visibility: 10 miles , 16 km
2021/09/25 02:52 KAQW 250252Z AUTO 00000KT 10SM CLR 12/10 A3008 RMK AO2 SLP186 T01170100 50004
 
KGFL - Glens Falls, New York, USA
Distance from station: W 63mi, 101km
Updated: 09/27/2021 6:53pm
Overcast
Overcast
 Wind from calm
Wind: Calm
Temperature: 63°F , 17°C
Dew Point: 61°F , 16°C
Humidity: 94%
Barometer: 29.77 inHg , 1008.1 hPa
Clouds: Overcast
Visibility: 10 miles , 16 km
Cloud details: Few Clouds 2900 ft
Overcast 6500 ft
2021/09/27 22:53 KGFL 272253Z AUTO 00000KT 10SM FEW029 OVC065 17/16 A2977 RMK AO2 RAB31E43 SLP083 P0000 T01720156
KFIT - Fitchburg, Massachusetts, USA
Distance from station: SSE 65mi, 105km
Updated: 09/27/2021 6:52pm
Clear
Clear
 Wind from S
Wind: S 6 mph , 9 km/h
Temperature: 68°F , 20°C
Dew Point: 55°F , 13°C
Humidity: 64%
Barometer: 29.80 inHg , 1009.1 hPa
Clouds: Clear
Visibility: 10 miles , 16 km
2021/09/27 22:52 KFIT 272252Z AUTO 19005KT 10SM CLR 20/13 A2980 RMK AO2 SLP092 T02000128
KDAW - Rochester, New Hampshire, USA
Distance from station: E 73mi, 118km
Updated: 09/27/2021 6:51pm
Overcast
Overcast
 Wind from calm
Wind: Calm
Temperature: 64°F , 18°C
Dew Point: 61°F , 16°C
Humidity: 88%
Barometer: 29.78 inHg , 1008.5 hPa
Clouds: Overcast
Visibility: 10 miles , 16 km
Cloud details: Overcast 6500 ft
2021/09/27 22:51 KDAW 272251Z AUTO 00000KT 10SM OVC065 18/16 A2978 RMK AO2 RAE00 SLP084 P0000 T01780156
 
K1V4 - St. Johnsbury, Vermont, USA
Distance from station: NNE 74mi, 119km
Updated: 09/27/2021 6:54pm

 
Temperature: 59°F , 15°C
Dew Point: 57°F , 14°C
Humidity: 94%
Barometer: 29.76 inHg , 1007.8 hPa
2021/09/27 22:54 K1V4 272254Z AUTO 15/14 A2976 RMK AO1 SLP077 T01500139
KLWM - Lawrence, Massachusetts, USA
Distance from station: SE 77mi, 124km
Updated: 09/27/2021 6:54pm
Clear
Clear
 Wind from SSW
Wind: SSW 6 mph , 9 km/h
Temperature: 68°F , 20°C
Dew Point: 57°F , 14°C
Humidity: 69%
Barometer: 29.80 inHg , 1009.1 hPa
Clouds: Clear
Visibility: 10 miles , 16 km
2021/09/27 22:54 KLWM 272254Z 20005KT 10SM CLR 20/14 A2980 RMK AO2 SLP092 T02000144



Flag Counter
free counter page views since 4/29/2009